Terminal Aerodrome Forecast
Issued by NWS

Home | Current Version | Previous Version | Text Only | Print | Product List | Glossary On
Versions: 1 2 3 4 5 6 7 8 9 10 11 12
000
FTUS45 KRIW 282300
TAFRKS
TAF
KRKS 282323Z 2900/2924 27029G39KT P6SM FEW090 SCT150
     FM290200 28020G28KT P6SM FEW150
     FM290700 25007KT P6SM SKC
     FM292100 26012KT P6SM SKC=

USA.gov is the U.S. government's official web portal to all federal, state and local government web resources and services.